createdAt,value
2017-12-20T16:25:51.195Z,16.00
2017-12-20T16:28:18.722Z,14.83
2017-12-20T16:30:47.035Z,15.93
2017-12-20T16:33:14.534Z,14.57
2017-12-20T16:35:42.051Z,13.77
2017-12-20T16:38:09.541Z,12.67
2017-12-20T16:40:37.035Z,12.60
2017-12-20T16:43:04.564Z,12.53
2017-12-20T16:45:32.103Z,12.97
2017-12-20T16:47:59.585Z,14.33
2017-12-20T16:50:27.067Z,14.90
2017-12-20T16:52:54.588Z,14.10
2017-12-20T16:55:22.074Z,13.80
2017-12-20T16:57:49.597Z,14.33
2017-12-20T17:00:17.861Z,14.77
2017-12-20T17:02:45.400Z,17.00
2017-12-20T17:05:12.895Z,16.27
2017-12-20T17:07:40.387Z,15.57
2017-12-20T17:10:07.905Z,14.93
2017-12-20T17:12:35.451Z,15.83
2017-12-20T17:15:02.950Z,16.90
2017-12-20T17:17:30.435Z,19.70
2017-12-20T17:19:58.717Z,20.30
2017-12-20T17:22:26.233Z,20.23
2017-12-20T17:24:53.803Z,16.27
2017-12-20T17:27:22.025Z,18.20
2017-12-20T17:29:49.590Z,20.60
2017-12-20T17:32:17.069Z,17.13
2017-12-20T17:34:44.592Z,16.23
2017-12-20T17:37:12.970Z,15.17
2017-12-20T17:39:40.486Z,12.20
2017-12-20T17:42:07.999Z,12.77
2017-12-20T17:44:36.271Z,12.77
2017-12-20T17:47:03.792Z,12.30
2017-12-20T17:49:31.285Z,12.10
2017-12-20T17:51:58.790Z,13.10
2017-12-20T17:54:27.042Z,13.00
2017-12-20T17:56:54.609Z,11.43
2017-12-20T17:59:22.087Z,12.33
2017-12-20T18:01:50.378Z,12.50
2017-12-20T18:04:18.707Z,13.33
2017-12-20T18:06:46.191Z,13.00
2017-12-20T18:09:13.716Z,13.80
2017-12-20T18:11:41.199Z,14.30
2017-12-20T18:14:08.730Z,14.17
2017-12-20T18:16:36.228Z,13.03
2017-12-20T18:19:03.763Z,15.83
2017-12-20T18:21:31.263Z,14.40
2017-12-20T18:23:58.765Z,14.90
2017-12-20T18:26:27.152Z,16.97
2017-12-20T18:28:55.410Z,17.63
2017-12-20T18:31:22.936Z,17.63
2017-12-20T18:33:50.430Z,18.60
2017-12-20T18:36:17.936Z,18.57
2017-12-20T18:38:45.447Z,17.30
2017-12-20T18:41:12.956Z,22.03
2017-12-20T18:43:40.483Z,21.70
2017-12-20T18:46:07.989Z,32.07
2017-12-20T18:48:35.475Z,17.67
2017-12-20T18:51:02.988Z,15.97
2017-12-20T18:53:31.250Z,15.10
2017-12-20T18:55:59.660Z,15.03
2017-12-20T18:58:27.921Z,19.43
2017-12-20T19:00:55.394Z,21.27
2017-12-20T19:03:23.674Z,18.50
2017-12-20T19:05:51.983Z,13.60
2017-12-20T19:08:19.521Z,17.97
2017-12-20T19:10:47.761Z,19.70
2017-12-20T19:13:15.245Z,19.17
2017-12-20T19:15:42.771Z,15.60
2017-12-20T19:18:10.251Z,17.07
2017-12-20T19:20:37.772Z,17.20
2017-12-20T19:23:05.302Z,16.47
2017-12-20T19:25:32.791Z,17.47
2017-12-20T19:28:01.287Z,14.40
2017-12-20T19:30:28.780Z,12.60
2017-12-20T19:32:56.299Z,13.70
2017-12-20T19:35:24.578Z,12.77
2017-12-20T19:37:52.837Z,14.67
2017-12-20T19:40:20.349Z,14.97
2017-12-20T19:42:47.861Z,17.13
2017-12-20T19:45:15.352Z,18.03
2017-12-20T19:47:43.657Z,16.20
2017-12-20T19:50:11.178Z,19.30
2017-12-20T19:52:38.661Z,27.50
2017-12-20T19:55:06.948Z,26.20
2017-12-20T19:57:34.430Z,23.73
2017-12-20T20:00:01.905Z,16.60
2017-12-20T20:02:29.414Z,14.83
2017-12-20T20:04:57.679Z,13.43
2017-12-20T20:07:25.210Z,12.77
2017-12-20T20:09:52.692Z,12.50
2017-12-20T20:12:20.179Z,13.00
2017-12-20T20:14:47.702Z,13.70
2017-12-20T20:17:15.218Z,15.20
2017-12-20T20:19:43.483Z,13.70
2017-12-20T20:22:10.990Z,11.70
2017-12-20T20:24:38.523Z,13.40
2017-12-20T20:27:06.790Z,12.47
2017-12-20T20:29:34.319Z,12.10
2017-12-20T20:32:01.803Z,16.00
2017-12-20T20:34:29.284Z,17.57
2017-12-20T20:36:56.789Z,22.20
2017-12-20T20:39:24.285Z,24.00
2017-12-20T20:41:51.801Z,15.43
2017-12-20T20:44:19.307Z,12.83
2017-12-20T20:46:47.994Z,13.73
2017-12-20T20:49:15.507Z,14.97
2017-12-20T20:51:43.759Z,12.70
2017-12-20T20:54:11.307Z,13.50
2017-12-20T20:56:38.872Z,13.97
2017-12-20T20:59:06.367Z,14.40
2017-12-20T21:01:34.651Z,13.70
2017-12-20T21:04:02.928Z,12.30
2017-12-20T21:06:31.205Z,12.00
2017-12-20T21:08:58.731Z,10.93
2017-12-20T21:11:26.222Z,12.40
2017-12-20T21:13:53.730Z,10.60
2017-12-20T21:16:21.257Z,9.57
2017-12-20T21:18:48.735Z,9.50
2017-12-20T21:21:17.027Z,9.87
2017-12-20T21:23:44.559Z,9.30
2017-12-20T21:26:12.103Z,9.90
2017-12-20T21:28:39.631Z,9.80
2017-12-20T21:31:07.156Z,10.83
2017-12-20T21:33:35.446Z,10.10
2017-12-20T21:36:03.712Z,9.60
2017-12-20T21:38:31.961Z,11.07
2017-12-20T21:40:59.483Z,10.50
2017-12-20T21:43:26.985Z,10.60
2017-12-20T21:45:54.557Z,10.70
2017-12-20T21:48:22.071Z,11.07
2017-12-20T21:50:49.578Z,11.23
2017-12-20T21:53:17.061Z,10.67
2017-12-20T21:55:44.579Z,11.20
2017-12-20T21:58:12.066Z,11.40
2017-12-20T22:00:39.592Z,12.13
2017-12-20T22:03:07.081Z,11.93
2017-12-20T22:05:34.586Z,12.70
2017-12-20T22:08:02.088Z,11.87
2017-12-20T22:10:29.627Z,12.60
2017-12-20T22:12:57.883Z,12.33
2017-12-20T22:15:25.383Z,13.77
2017-12-20T22:17:52.911Z,14.97
2017-12-20T22:20:20.390Z,13.17
2017-12-20T22:22:47.872Z,15.20
2017-12-20T22:25:15.412Z,15.33
2017-12-20T22:27:43.690Z,13.87
2017-12-20T22:30:11.359Z,13.40
2017-12-20T22:32:39.610Z,15.77
2017-12-20T22:35:07.127Z,15.43
2017-12-20T22:37:34.638Z,14.50
2017-12-20T22:40:02.126Z,15.00
2017-12-20T22:42:29.648Z,14.23
2017-12-20T22:44:57.123Z,17.33
2017-12-20T22:47:24.639Z,15.33
2017-12-20T22:49:52.908Z,14.23
2017-12-20T22:52:21.166Z,14.90
2017-12-20T22:54:48.682Z,15.30
2017-12-20T22:57:16.172Z,15.30
2017-12-20T22:59:43.655Z,15.03
2017-12-20T23:02:11.175Z,15.60
2017-12-20T23:04:38.694Z,15.30
2017-12-20T23:07:06.966Z,14.30
2017-12-20T23:09:34.444Z,13.47
2017-12-20T23:12:02.811Z,14.53
2017-12-20T23:14:30.364Z,13.53
2017-12-20T23:16:57.895Z,14.53
2017-12-20T23:19:25.383Z,13.40
2017-12-20T23:21:52.915Z,14.30
2017-12-20T23:24:20.437Z,13.60
2017-12-20T23:26:47.914Z,13.47
2017-12-20T23:29:16.166Z,14.90
2017-12-20T23:31:43.695Z,15.63
2017-12-20T23:34:11.183Z,15.17
2017-12-20T23:36:38.794Z,15.07
2017-12-20T23:39:06.327Z,17.47
2017-12-20T23:41:33.821Z,17.50
2017-12-20T23:44:02.104Z,18.00
2017-12-20T23:46:29.590Z,16.37
2017-12-20T23:48:57.112Z,15.23
2017-12-20T23:51:25.403Z,15.67
2017-12-20T23:53:53.655Z,17.17
2017-12-20T23:56:21.170Z,17.20
2017-12-20T23:58:48.670Z,15.93
